x

Lake Winnipeg S. Basin (45140) Wave Buoy

12:00pm - Fri 29th Jul 2016 All times are UTC.

  • Sig Wave height 1.0ft
  • Peak Period 2s
  • Wind
    11mph, 13mph gusts
  • Sea Temp 71°f
  • Air Temp 68°f
  • Sea Pressure 1018.5mb

More Historic Weather Station data

Upgrade to MSW Pro to gain access to the past 30 days of data for over 8000 Wavebouys and Weather Stations around the globe.

Join Pro

Comparision Forecast

View Surf forecast
   
Fri 07/29 12:00pm 1ft 2s 11 13 mph 1018.5mb 71f 68f
11:00am 1ft 2s 9 11 mph 1018.3mb 71f 69f
10:00am 1ft 3s 11 13 mph 1018.3mb 71f 69f
9:00am 1ft 3s 11 13 mph 1018.5mb 71f 69f
8:00am 1ft 2s 11 13 mph 1018.7mb 72f 70f
6:00am 1ft 2s 13 16 mph 1019mb 73f 71f
5:00am 0.7ft 2s 11 13 mph 1018.8mb 73f 72f
4:00am 0.3ft 2s 11 13 mph 1018.9mb 74f 73f
3:00am 0.3ft 3s 9 11 mph 1018.9mb 75f 73f
2:00am  -  2s 7
mph
1018.7mb 76f 72f
1:00am  -  3s 4 7 mph 1018.6mb 77f 73f
12:00am  -  2s 4
mph
1019mb - 73f
Thu 07/28 11:00pm  -  2s 4 7 mph 1019.4mb - 72f
10:00pm  -  3s 2 4 mph 1020mb - 71f
9:00pm  -  3s 4
mph
1020.5mb 76f 70f
8:00pm 0.3ft 3s 4 7 mph 1020.9mb 76f 69f
7:00pm 0.3ft 3s 4 7 mph 1021.2mb 75f 69f
6:00pm  -  3s 4 7 mph 1021.4mb 73f 68f
5:00pm  -  2s 7 9 mph 1021.6mb 73f 67f
4:00pm  -  2s 4 7 mph 1021.6mb 73f 67f
3:00pm 0.3ft 2s 4 7 mph 1021.6mb 72f 67f
2:00pm 0.3ft 2s 2 4 mph 1021.6mb 71f 67f
1:00pm 0.3ft 2s 2 4 mph 1022mb 71f 67f
12:00pm 0.3ft 2s 4 7 mph 1022.1mb 71f 66f
11:00am 0.3ft 2s 4 7 mph 1021.8mb 71f 65f
10:00am 0.3ft 2s 7 9 mph 1021.4mb 71f 65f
9:00am 0.3ft 2s 4 7 mph 1021.3mb 71f 66f
8:00am 0.3ft 2s 4 7 mph 1021.2mb 71f 66f
7:00am 0.7ft 2s 7 9 mph 1021.4mb 71f 66f
6:00am 0.3ft 2s 9 11 mph 1021.4mb 71f 67f
4:00am 0.3ft 3s 9
mph
1020.8mb 72f 67f
2:00am 0.3ft 2s 7 9 mph 1020mb 72f 68f
1:00am 0.3ft 2s 7 9 mph 1020.2mb 72f 68f
Wed 07/27 10:00pm 0.7ft 2s 7 9 mph 1021.4mb 73f 67f
9:00pm 0.7ft 2s 7 9 mph 1021.4mb 72f 66f
8:00pm 0.7ft 3s 9 11 mph 1021.5mb 72f 66f
7:00pm 1ft 3s 9 13 mph 1021.5mb 71f 66f
5:00pm 1.3ft 3s 11 13 mph 1021.5mb 71f 65f
1:00pm 1.6ft 3s 16 20 mph 1020.3mb 71f 64f
9:00am 2ft 4s 16
mph
1019.4mb 71f 65f
8:00am 2ft 3s 16 18 mph 1018.7mb 71f 66f
5:00am 2.5ft 4s 18 20 mph 1018.6mb 71f 68f
4:00am 2.5ft 3s 18 22 mph 1018.1mb 71f 67f
3:00am  -   -  16
mph
- - 68f
2:00am  -   -  16
mph
- - -
1:00am 3ft 4s 18 22 mph 1017.3mb 72f 69f
12:00am 3ft 4s 20 25 mph 1017.5mb 72f 70f
Tue 07/26 10:00pm 2.5ft 4s 22 27 mph 1016.9mb 72f 69f
9:00pm 1.6ft 3s 18 22 mph 1017.1mb 73f 70f
8:00pm 1ft 2s 16 20 mph 1016.9mb 74f 71f
7:00pm 0.7ft 2s 11 13 mph 1017.2mb 74f 72f
6:00pm 0.3ft 2s 9 13 mph 1016.9mb 74f 73f
5:00pm 0.3ft 2s 4
mph
1017.3mb 74f 71f
4:00pm 0.7ft 2s 7 9 mph 1016.6mb 73f 71f
3:00pm 0.7ft 2s 7 9 mph 1016.4mb 72f 69f
2:00pm  -   -  9
mph
1016.3mb 72f 70f
12:00pm 0.3ft 2s 9 11 mph 1015.5mb 72f 69f
11:00am 0.3ft 2s 4 7 mph 1014.9mb 72f 70f
10:00am 0.3ft 2s 4 7 mph 1014.8mb 72f 71f
9:00am 0.3ft 2s 4
mph
1014.7mb 72f 71f
7:00am 0.7ft 2s 7 9 mph 1014.5mb 72f 72f
6:00am 0.7ft 2s 11
mph
1013.9mb 73f 73f
5:00am 0.3ft 2s 11 13 mph 1013.7mb 73f 73f
4:00am 0.3ft 2s 7 9 mph 1013.5mb 73f 75f
3:00am 0.7ft 2s 4 7 mph 1013.2mb 74f 75f
2:00am 0.7ft 2s 4 7 mph 1012.8mb 73f 75f
1:00am 0.7ft 2s 9
mph
1012.4mb 74f 78f
12:00am  -   -  7
mph
1012.1mb - 78f
Mon 07/25 11:00pm 0.7ft 2s 4 7 mph 1012.2mb 74f 77f
10:00pm 1ft 2s 7 9 mph 1012.3mb 74f 77f
9:00pm 1ft 2s 9 11 mph 1012.4mb 74f 77f
8:00pm 0.7ft 2s 9 11 mph 1012.9mb 73f 77f
7:00pm 0.7ft 2s 9 11 mph 1013.1mb 73f 76f
6:00pm 0.7ft 2s 9
mph
1013.3mb 73f 75f
5:00pm 0.7ft 2s 7 9 mph 1013.5mb 72f 73f
4:00pm 0.7ft 2s 7 9 mph 1013.6mb 71f 72f
3:00pm 1ft 2s 11 13 mph 1013.5mb 71f 71f
2:00pm 1.3ft 3s 9 11 mph 1013.5mb 71f 69f